»·PEaware :: DAL4243 KLAX-KPHX

DAL4243 :: KLAX-KPHX

FLIGHT INFORMATION

Flight Status: Arrived
Operator:
Delta Air Lines
More flights by this operator :: More flights under this callsign
Pilot: Sean Bradley (13609)
Aircraft: BOEING 757-200
(B752)
More flights by this aircraft type
Origin: KLAX Los Angeles Intl
United States
Destination: KPHX Phoenix Sky Harbor Intl
United States
More flights between these airports :: More routes between these airports
Route: +HOLTZ1 TRM BLH HYDRR1
File this flight plan on PilotEdge
Remarks:
Altitude:
(Current/Filed)
35,000ft
Speed:
(Current/Filed)
430kts
Departed: 04-Jan-17 03:59 PM
Arrived: 04-Jan-17 04:58 PM
Distance/Time
Traveled:
321nm/0:59
Distance/Time
To Go:
Arrived

Flight Plot

Page will automatically refresh every two minutes.


Map Options




Map Legend


Flown Route
Filed Route
Departure Airport
Arrival Airport
Navaid (VOR, NDB)
Fix

Horizontal Profiles

Position Reports

Time Latitude Longitude Heading Altitude Ground
Speed
04-Jan-17 15:28 33.940223 -118.404963 83 126ft 0kts
04-Jan-17 15:29 33.940223 -118.404963 83 126ft 0kts
04-Jan-17 15:30 33.940223 -118.404963 83 126ft 0kts
04-Jan-17 15:31 33.940223 -118.404963 83 126ft 0kts
04-Jan-17 15:32 33.940224 -118.404963 83 126ft 0kts
04-Jan-17 15:33 33.940224 -118.404963 83 126ft 0kts
04-Jan-17 15:34 33.940224 -118.404963 83 126ft 0kts
04-Jan-17 15:35 33.940224 -118.404963 83 126ft 0kts
04-Jan-17 15:36 33.940224 -118.404963 83 126ft 0kts
04-Jan-17 15:37 33.940224 -118.404963 83 126ft 0kts
04-Jan-17 15:38 33.940224 -118.404963 83 126ft 0kts
04-Jan-17 15:39 33.940224 -118.404963 83 126ft 0kts
04-Jan-17 15:40 33.940224 -118.404963 83 126ft 0kts
04-Jan-17 15:41 33.940224 -118.404963 83 126ft 0kts
04-Jan-17 15:42 33.940198 -118.405236 86 126ft 1kts
04-Jan-17 15:43 33.940369 -118.405519 173 126ft 0kts
04-Jan-17 15:44 33.940369 -118.405519 173 126ft 0kts
04-Jan-17 15:45 33.940369 -118.405519 173 126ft 0kts
04-Jan-17 15:46 33.940369 -118.405519 173 126ft 0kts
04-Jan-17 15:47 33.940369 -118.405519 173 126ft 0kts
04-Jan-17 15:48 33.940369 -118.405519 173 126ft 0kts
04-Jan-17 15:49 33.939654 -118.405422 173 126ft 8kts
04-Jan-17 15:50 33.938326 -118.404430 84 125ft 10kts
04-Jan-17 15:51 33.938657 -118.401069 83 122ft 15kts
04-Jan-17 15:52 33.939147 -118.396356 83 113ft 21kts
04-Jan-17 15:53 33.939706 -118.390891 83 108ft 22kts
04-Jan-17 15:54 33.940263 -118.385384 82 107ft 21kts
04-Jan-17 15:55 33.940702 -118.380814 98 103ft 1kts
04-Jan-17 15:56 33.940701 -118.380809 98 103ft 0kts
04-Jan-17 15:57 33.940701 -118.380809 98 103ft 0kts
04-Jan-17 15:58 33.939848 -118.380555 248 103ft 10kts
04-Jan-17 15:59 33.936666 -118.408508 262 1100ft 172kts
04-Jan-17 16:00 33.924618 -118.463446 234 3364ft 225kts
04-Jan-17 16:01 33.888719 -118.517645 234 4978ft 235kts
04-Jan-17 16:02 33.845196 -118.559974 187 5015ft 253kts
04-Jan-17 16:03 33.782943 -118.545301 175 7806ft 272kts
04-Jan-17 16:04 33.736833 -118.532966 174 9874ft 284kts
04-Jan-17 16:05 33.690886 -118.505439 136 11035ft 348kts
04-Jan-17 16:06 33.662149 -118.417619 106 12609ft 406kts
04-Jan-17 16:07 33.644672 -118.314030 89 14966ft 426kts
04-Jan-17 16:08 33.644657 -118.212293 89 16966ft 441kts
04-Jan-17 16:09 33.644577 -118.076945 90 19310ft 458kts
04-Jan-17 16:10 33.644381 -117.943671 90 21341ft 473kts
04-Jan-17 16:11 33.644135 -117.840872 90 22737ft 483kts
04-Jan-17 16:12 33.643713 -117.715261 89 23876ft 493kts
04-Jan-17 16:13 33.643077 -117.568916 90 25455ft 508kts
04-Jan-17 16:14 33.642234 -117.418341 90 26883ft 521kts
04-Jan-17 16:15 33.641411 -117.294744 91 27930ft 532kts
04-Jan-17 16:16 33.640404 -117.164683 91 28932ft 541kts
04-Jan-17 16:17 33.638870 -116.994453 91 30108ft 553kts
04-Jan-17 16:18 33.637074 -116.822019 91 31279ft 561kts
04-Jan-17 16:19 33.635014 -116.644779 90 32866ft 559kts
04-Jan-17 16:20 33.632632 -116.465215 90 34268ft 558kts
04-Jan-17 16:21 33.630124 -116.292175 91 35013ft 557kts
04-Jan-17 16:22 33.627164 -116.112328 91 35026ft 559kts
04-Jan-17 16:23 33.624326 -115.957981 91 35029ft 559kts
04-Jan-17 16:24 33.621297 -115.800625 91 35030ft 559kts
04-Jan-17 16:25 33.618189 -115.650728 90 35034ft 559kts
04-Jan-17 16:26 33.614563 -115.485779 90 35037ft 559kts
04-Jan-17 16:27 33.610958 -115.331216 91 35038ft 559kts
04-Jan-17 16:28 33.606524 -115.152628 91 35033ft 561kts
04-Jan-17 16:29 33.602226 -114.991615 91 35035ft 559kts
04-Jan-17 16:30 33.597330 -114.813931 91 35040ft 533kts
04-Jan-17 16:31 33.571954 -114.640468 104 33429ft 539kts
04-Jan-17 16:32 33.538818 -114.468727 104 30800ft 535kts
04-Jan-17 16:33 33.506585 -114.304583 104 28313ft 528kts
04-Jan-17 16:34 33.476583 -114.153000 104 26227ft 509kts
04-Jan-17 16:35 33.449617 -114.019009 104 24825ft 473kts
04-Jan-17 16:36 33.422617 -113.884977 104 23574ft 466kts
04-Jan-17 16:37 33.399190 -113.768678 104 22760ft 460kts
04-Jan-17 16:38 33.369999 -113.624550 104 21783ft 454kts
04-Jan-17 16:39 33.342018 -113.487249 104 20821ft 447kts
04-Jan-17 16:40 33.321329 -113.371748 101 19391ft 445kts
04-Jan-17 16:41 33.299651 -113.245089 101 17371ft 440kts
04-Jan-17 16:42 33.281549 -113.121632 99 15741ft 415kts
04-Jan-17 16:43 33.276021 -113.010628 86 14502ft 393kts
04-Jan-17 16:44 33.278234 -112.915529 86 13121ft 373kts
04-Jan-17 16:45 33.283033 -112.823281 69 12009ft 341kts
04-Jan-17 16:46 33.312696 -112.737782 62 10766ft 335kts
04-Jan-17 16:47 33.341261 -112.661400 61 10229ft 302kts
04-Jan-17 16:48 33.369595 -112.587097 61 9009ft 290kts
04-Jan-17 16:49 33.397190 -112.514566 61 8297ft 262kts
04-Jan-17 16:50 33.424437 -112.438088 64 7568ft 253kts
04-Jan-17 16:51 33.428411 -112.364872 86 6659ft 251kts
04-Jan-17 16:52 33.436199 -112.296426 79 5655ft 248kts
04-Jan-17 16:53 33.439914 -112.231997 83 4545ft 199kts
04-Jan-17 16:54 33.440691 -112.178265 85 3647ft 161kts
04-Jan-17 16:55 33.440880 -112.126948 86 2860ft 164kts
04-Jan-17 16:56 33.440880 -112.082315 88 2016ft 151kts
04-Jan-17 16:57 33.440818 -112.037934 89 1280ft 140kts
04-Jan-17 16:58 33.440814 -112.011833 89 1130ft 22kts
04-Jan-17 16:59 33.439859 -112.010987 212 1130ft 4kts
04-Jan-17 17:00 33.439022 -112.010472 95 1130ft 8kts
04-Jan-17 17:01 33.438916 -112.008090 112 1132ft 8kts
04-Jan-17 17:02 33.437435 -112.007760 261 1130ft 7kts
04-Jan-17 17:03 33.437413 -112.008126 268 1130ft 0kts
04-Jan-17 17:04 33.437413 -112.008126 268 1130ft 0kts
04-Jan-17 17:05 33.437413 -112.008126 268 1130ft 0kts
04-Jan-17 17:06 33.437413 -112.008126 268 1130ft 0kts
04-Jan-17 17:07 33.437413 -112.008126 268 1130ft 0kts

Navigation Log

Ident Type
1. KLAX Airport
2. PEVEE Fix
3. HOLTZ Fix
4. TRM Navaid
5. BLH Navaid
6. KPHX Airport